createdAt,value
2023-01-26T00:06:31.561Z,78.20
2023-01-26T00:14:50.102Z,78.50
2023-01-26T00:22:58.286Z,77.60
2023-01-26T00:31:06.561Z,76.40
2023-01-26T00:39:14.600Z,75.30
2023-01-26T00:47:21.188Z,75.40
2023-01-26T00:55:32.557Z,74.40
2023-01-26T01:03:38.832Z,75.50
2023-01-26T01:11:46.884Z,76.00
2023-01-26T01:19:53.352Z,75.90
2023-01-26T01:28:02.806Z,75.50
2023-01-26T01:36:10.327Z,75.50
2023-01-26T01:44:21.301Z,75.00
2023-01-26T01:52:30.699Z,75.60
2023-01-26T02:00:38.959Z,76.30
2023-01-26T02:08:48.244Z,75.10
2023-01-26T02:16:56.313Z,74.80
2023-01-26T02:25:09.967Z,74.80
2023-01-26T02:33:21.582Z,74.70
2023-01-26T02:41:39.917Z,75.30
2023-01-26T02:49:51.352Z,74.80
2023-01-26T02:58:18.548Z,76.40
2023-01-26T03:06:38.894Z,75.60
2023-01-26T03:15:10.502Z,74.90
2023-01-26T03:23:31.196Z,75.20
2023-01-26T03:31:37.450Z,75.50
2023-01-26T03:39:58.157Z,75.60
2023-01-26T03:48:20.809Z,75.90
2023-01-26T03:56:32.752Z,76.90
2023-01-26T04:04:55.869Z,78.20
2023-01-26T04:13:20.874Z,80.30
2023-01-26T04:21:33.483Z,79.50
2023-01-26T04:29:44.786Z,79.40
2023-01-26T04:37:51.599Z,79.30
2023-01-26T04:46:07.914Z,78.30
2023-01-26T04:54:14.690Z,78.70
2023-01-26T05:02:25.420Z,80.80
2023-01-26T05:10:31.373Z,79.70
2023-01-26T05:18:58.407Z,78.20
2023-01-26T05:27:24.034Z,78.80
2023-01-26T05:35:40.828Z,80.00
2023-01-26T05:43:51.296Z,80.00
2023-01-26T05:52:23.792Z,80.20
2023-01-26T06:00:31.903Z,81.10
2023-01-26T06:08:47.503Z,80.80
2023-01-26T06:17:10.909Z,81.40
2023-01-26T06:25:20.425Z,82.60
2023-01-26T06:33:26.116Z,82.60
2023-01-26T06:41:34.793Z,82.80
2023-01-26T06:49:40.405Z,82.40
2023-01-26T06:57:50.124Z,81.70
2023-01-26T07:06:14.363Z,82.60
2023-01-26T07:14:22.426Z,82.40
2023-01-26T07:22:27.801Z,82.00
2023-01-26T07:30:35.939Z,82.40
2023-01-26T07:38:42.161Z,82.40
2023-01-26T07:46:50.359Z,83.40
2023-01-26T07:54:55.706Z,84.00
2023-01-26T08:03:03.682Z,83.10
2023-01-26T08:11:09.626Z,83.20
2023-01-26T08:19:17.868Z,82.30
2023-01-26T08:27:23.291Z,80.10
2023-01-26T08:35:31.510Z,77.30
2023-01-26T08:43:37.215Z,76.70
2023-01-26T08:51:47.581Z,76.30
2023-01-26T08:59:54.451Z,73.00
2023-01-26T09:08:02.625Z,72.80
2023-01-26T09:16:27.014Z,67.20
2023-01-26T09:24:35.315Z,58.60
2023-01-26T09:32:41.045Z,58.60
2023-01-26T09:41:00.459Z,60.20
2023-01-26T09:49:10.355Z,64.50
2023-01-26T09:57:20.892Z,67.10
2023-01-26T10:05:33.258Z,67.00
2023-01-26T10:13:51.592Z,67.40
2023-01-26T10:21:58.273Z,68.00
2023-01-26T10:30:06.804Z,66.80
2023-01-26T10:38:15.890Z,68.50
2023-01-26T10:46:31.502Z,68.10
2023-01-26T10:54:38.871Z,66.80
2023-01-26T11:02:53.986Z,67.80
2023-01-26T11:10:59.487Z,71.00
2023-01-26T11:19:14.989Z,71.60
2023-01-26T11:27:47.623Z,72.40
2023-01-26T11:36:06.706Z,71.80
2023-01-26T11:44:36.375Z,70.70
2023-01-26T11:52:58.636Z,70.40
2023-01-26T12:01:06.383Z,71.10
2023-01-26T12:09:21.651Z,72.20
2023-01-26T12:17:38.603Z,71.60
2023-01-26T12:25:52.263Z,72.90
2023-01-26T12:34:00.138Z,72.00
2023-01-26T12:42:25.316Z,72.70
2023-01-26T12:50:37.866Z,72.20
2023-01-26T12:58:50.139Z,72.00
2023-01-26T13:07:06.328Z,71.00
2023-01-26T13:15:18.148Z,71.60
2023-01-26T13:23:47.645Z,73.30
2023-01-26T13:31:58.000Z,75.10
2023-01-26T13:40:07.656Z,73.20
2023-01-26T13:48:21.822Z,73.90
2023-01-26T13:56:31.089Z,72.80
2023-01-26T14:04:42.188Z,72.20
2023-01-26T14:12:52.135Z,72.20
2023-01-26T14:21:21.978Z,70.80
2023-01-26T14:29:39.778Z,72.30
2023-01-26T14:37:50.136Z,71.70
2023-01-26T14:46:01.606Z,71.90
2023-01-26T14:54:24.052Z,72.30
2023-01-26T15:02:38.894Z,72.20
2023-01-26T15:11:18.029Z,71.80
2023-01-26T15:19:27.551Z,71.90
2023-01-26T15:27:45.712Z,73.10
2023-01-26T15:36:01.641Z,72.10
2023-01-26T15:44:16.855Z,72.00
2023-01-26T15:52:25.845Z,70.40
2023-01-26T16:00:34.621Z,71.30
2023-01-26T16:08:42.939Z,72.60
2023-01-26T16:16:51.127Z,72.30
2023-01-26T16:24:57.173Z,73.10
2023-01-26T16:33:05.471Z,73.30
2023-01-26T16:41:27.632Z,74.30
2023-01-26T16:49:37.909Z,72.60
2023-01-26T16:57:44.334Z,72.00
2023-01-26T17:05:53.539Z,71.50
2023-01-26T17:14:00.078Z,71.40
2023-01-26T17:22:08.553Z,71.80
2023-01-26T17:30:18.950Z,71.00
2023-01-26T17:38:29.217Z,70.70
2023-01-26T17:46:34.676Z,71.60
2023-01-26T17:54:44.573Z,72.40
2023-01-26T18:02:56.826Z,70.90
2023-01-26T18:11:07.388Z,72.10
2023-01-26T18:19:17.533Z,72.00
2023-01-26T18:27:26.736Z,71.60
2023-01-26T18:35:34.386Z,70.50
2023-01-26T18:43:43.355Z,70.20
2023-01-26T18:51:49.774Z,69.90
2023-01-26T18:59:57.950Z,68.80
2023-01-26T19:08:10.177Z,68.50
2023-01-26T19:16:38.153Z,68.80
2023-01-26T19:24:43.751Z,68.20
2023-01-26T19:33:29.323Z,69.10
2023-01-26T19:41:39.136Z,68.50
2023-01-26T19:50:19.383Z,69.10
2023-01-26T19:58:34.030Z,69.40
2023-01-26T20:06:41.026Z,70.10
2023-01-26T20:14:50.511Z,69.30
2023-01-26T20:22:56.590Z,69.90
2023-01-26T20:31:11.639Z,69.80
2023-01-26T20:39:47.879Z,69.70
2023-01-26T20:47:56.746Z,69.60
2023-01-26T20:56:17.627Z,69.50
2023-01-26T21:04:27.685Z,70.00
2023-01-26T21:12:43.040Z,70.70
2023-01-26T21:21:27.061Z,71.00
2023-01-26T21:29:57.981Z,70.90
2023-01-26T21:38:13.361Z,70.60
2023-01-26T21:46:18.834Z,70.70
2023-01-26T21:54:26.994Z,70.70
2023-01-26T22:02:44.423Z,70.80
2023-01-26T22:10:59.072Z,71.30
2023-01-26T22:19:04.684Z,71.00
2023-01-26T22:27:12.962Z,71.10
2023-01-26T22:35:18.966Z,71.80
2023-01-26T22:43:27.396Z,72.30
2023-01-26T22:51:37.579Z,73.30
2023-01-26T22:59:45.891Z,74.60
2023-01-26T23:07:51.375Z,74.20
2023-01-26T23:16:01.203Z,74.20
2023-01-26T23:24:06.906Z,74.00
2023-01-26T23:32:18.928Z,74.20
2023-01-26T23:40:24.279Z,74.10
2023-01-26T23:49:03.391Z,74.20
2023-01-26T23:57:12.707Z,74.00
